LiveATC.Net - Listen to live air traffic control over the Internet!

ICAO: UUEE  IATA: SVO   Airport: Sheremetyevo Airport
City: Moscow
Country: Russia   Continent: Europe
UUEE METAR Weather: UUEE 230800Z 21007MPS 1900 SN OVC009 M00/M01 Q0997 R24L/450245 TEMPO 0700 +SHSN BKN015CB
UUEE Flight Activity (FlightAware)
UUEE Twr/App/Radar
Feed Status: UP   Listeners: 5
Listen right in your browser - requires Flash (in browser, requires Flash)
Click here to listen with your own player (launches your MP3 player)
UUEE Twr/App/Radar Audio Archives
AFL ACC131.675
Moscow Radar118.100
Moscow TMA App (East 3600+)131.200
Moscow TMA App (West 3600-)122.700
Moscow TMA Approach123.400
Moscow TMA Approach128.000
Moscow TMA Approach (West 3600m+)127.200
Moscow Tower131.500
UUWW Ground120.450
UUWW Radar126.000
UUWW Tower118.300

NOTE: If archived recordings are used you please provide a link back to (and to


Unauthorized use prohibited. See Terms of Service

Find LiveATC Audio Streams

Airport/ARTCC Code

Frequency Search
(e.g., 124.400, 128.75)
Site-wide search

Browse LiveATC Feeds
LiveATC Coverage Map
Top 50 LiveATC Feeds
Bad Weather Areas

Offer a LiveATC Feed
Press Inquiries

LiveATC on iPhone
LiveATC on Android

Windows Phone
Windows 8/10

LiveATC Mobile
(Mobile browser)

ATC Audio Archives
Interesting Recordings

LiveATC Forums

Home Page
Make a Donation
Terms of Use
Privacy Policy

Canadian Air Freqs


FAA Airport Status
Nat'l Airspace Status
Arrival Demand Charts

Server Software By: